Time;durP1;ratioP1;P1;durP2;ratioP2;P2;SDS_P1;SDS_P2;PMS_P1;PMS_P2;Temp;Humidity;BMP_temperature;BMP_pressure;BME280_temperature;BME280_humidity;BME280_pressure;Samples;Min_cycle;Max_cycle;Signal;HPM_P1;HPM_P2
2021/11/03 00:00:33;;;;;;;;;;;;;;;;;;5113743;28;19932;-81
2021/11/03 00:03:02;;;;;;;;;;;;;;;;;;5113519;28;19931;-80
2021/11/03 00:05:29;;;;;;;;;;;;;;;;;;5113729;28;20359;-81
2021/11/03 00:07:57;;;;;;;;;;;;;;;;;;5113904;28;19935;-81
2021/11/03 00:10:24;;;;;;;;;;;;;;;;;;5113802;28;19924;-80
2021/11/03 00:12:52;;;;;;;;;;;;;;;;;;5125004;27;19938;-78
2021/11/03 00:15:19;;;;;;;;;;;;;;;;;;5113641;28;20014;-80
2021/11/03 00:17:48;;;;;;;;;;;;;;;;;;5113955;28;20306;-81
2021/11/03 00:20:15;;;;;;;;;;;;;;;;;;5113246;28;20340;-80
2021/11/03 00:22:42;;;;;;;;;;;;;;;;;;5113197;28;19924;-81
2021/11/03 00:25:09;;;;;;;;;;;;;;;;;;5113672;27;19935;-79
2021/11/03 00:27:37;;;;;;;;;;;;;;;;;;5114006;28;19924;-78
2021/11/03 00:30:04;;;;;;;;;;;;;;;;;;5113158;28;20311;-79
2021/11/03 00:32:32;;;;;;;;;;;;;;;;;;5113508;28;20016;-79
2021/11/03 00:35:00;;;;;;;;;;;;;;;;;;5112909;28;19931;-80
2021/11/03 00:37:27;;;;;;;;;;;;;;;;;;5112863;28;19924;-79
2021/11/03 00:39:54;;;;;;;;;;;;;;;;;;5112702;28;19924;-79
2021/11/03 00:42:21;;;;;;;;;;;;;;;;;;5113098;28;19928;-79
2021/11/03 00:44:48;;;;;;;;;;;;;;;;;;5112768;28;20012;-79
2021/11/03 00:47:15;;;;;;;;;;;;;;;;;;5112433;28;20357;-79
2021/11/03 00:49:43;;;;;;;;;;;;;;;;;;5112751;28;20264;-81
2021/11/03 00:52:11;;;;;;;;;;;;;;;;;;5113157;28;19934;-79
2021/11/03 00:54:38;;;;;;;;;;;;;;;;;;5112402;28;19927;-79
2021/11/03 00:57:05;;;;;;;;;;;;;;;;;;5112818;28;19923;-79
2021/11/03 00:59:33;;;;;;;;;;;;;;;;;;5111961;28;19931;-79
2021/11/03 01:02:00;;;;;;;;;;;;;;;;;;5112535;28;20386;-79
2021/11/03 01:04:27;;;;;;;;;;;;;;;;;;5112678;28;19935;-79
2021/11/03 01:06:54;;;;;;;;;;;;;;;;;;5112433;28;19928;-79
2021/11/03 01:09:22;;;;;;;;;;;;;;;;;;5112453;28;20104;-78
2021/11/03 01:11:49;;;;;;;;;;;;;;;;;;5114738;27;20345;-79
2021/11/03 01:14:17;;;;;;;;;;;;;;;;;;5120236;27;19923;-79
2021/11/03 01:16:44;;;;;;;;;;;;;;;;;;5112457;28;20303;-78
2021/11/03 01:19:11;;;;;;;;;;;;;;;;;;5112214;28;20351;-81
2021/11/03 01:21:39;;;;;;;;;;;;;;;;;;5112264;28;19939;-81
2021/11/03 01:24:07;;;;;;;;;;;;;;;;;;5112108;28;19924;-81
2021/11/03 01:26:36;;;;;;;;;;;;;;;;;;5112278;28;19923;-81
2021/11/03 01:29:03;;;;;;;;;;;;;;;;;;5112418;28;19934;-81
2021/11/03 01:31:31;;;;;;;;;;;;;;;;;;5112258;28;19931;-81
2021/11/03 01:33:59;;;;;;;;;;;;;;;;;;5112299;28;19950;-81
2021/11/03 01:36:26;;;;;;;;;;;;;;;;;;5111589;28;19984;-81
2021/11/03 01:38:53;;;;;;;;;;;;;;;;;;5112007;28;20229;-82
2021/11/03 01:41:21;;;;;;;;;;;;;;;;;;5111026;28;19931;-82
2021/11/03 01:43:50;;;;;;;;;;;;;;;;;;5112506;28;19946;-81
2021/11/03 01:46:22;;;;;;;;;;;;;;;;;;5111733;28;19923;-81
2021/11/03 01:48:49;;;;;;;;;;;;;;;;;;5111724;28;19938;-81
2021/11/03 01:51:19;;;;;;;;;;;;;;;;;;5111809;28;19949;-81
2021/11/03 01:53:46;;;;;;;;;;;;;;;;;;5111928;28;19923;-82
2021/11/03 01:56:13;;;;;;;;;;;;;;;;;;5111656;28;19928;-81
2021/11/03 01:58:44;;;;;;;;;;;;;;;;;;5111551;28;19927;-81
2021/11/03 02:01:13;;;;;;;;;;;;;;;;;;5111651;28;19932;-81
2021/11/03 02:03:41;;;;;;;;;;;;;;;;;;5111966;28;19934;-82
2021/11/03 02:06:10;;;;;;;;;;;;;;;;;;5111650;28;19923;-81
2021/11/03 02:08:39;;;;;;;;;;;;;;;;;;5111109;28;19928;-81
2021/11/03 02:11:06;;;;;;;;;;;;;;;;;;5111814;28;19923;-81
2021/11/03 02:13:35;;;;;;;;;;;;;;;;;;5127097;27;19928;-81
2021/11/03 02:16:03;;;;;;;;;;;;;;;;;;5115663;28;19928;-81
2021/11/03 02:18:32;;;;;;;;;;;;;;;;;;5115764;28;19939;-81
2021/11/03 02:20:59;;;;;;;;;;;;;;;;;;5115930;28;19927;-81
2021/11/03 02:23:31;;;;;;;;;;;;;;;;;;5115695;28;20292;-81
2021/11/03 02:26:02;;;;;;;;;;;;;;;;;;5115663;28;20392;-81
2021/11/03 02:28:30;;;;;;;;;;;;;;;;;;5115578;28;19923;-81
2021/11/03 02:30:57;;;;;;;;;;;;;;;;;;5115562;28;19928;-81
2021/11/03 02:33:25;;;;;;;;;;;;;;;;;;5115313;28;20279;-81
2021/11/03 02:35:54;;;;;;;;;;;;;;;;;;5115105;28;20396;-81
2021/11/03 02:38:26;;;;;;;;;;;;;;;;;;5115238;28;19928;-81
2021/11/03 02:40:56;;;;;;;;;;;;;;;;;;5115187;28;19976;-81
2021/11/03 02:43:25;;;;;;;;;;;;;;;;;;5115369;28;19935;-81
2021/11/03 02:45:53;;;;;;;;;;;;;;;;;;5115569;28;19932;-81
2021/11/03 02:48:21;;;;;;;;;;;;;;;;;;5114724;28;19938;-82
2021/11/03 02:50:53;;;;;;;;;;;;;;;;;;5115088;27;20376;-82
2021/11/03 02:53:20;;;;;;;;;;;;;;;;;;5114948;28;19927;-81
2021/11/03 02:55:47;;;;;;;;;;;;;;;;;;5115037;28;19928;-81
2021/11/03 02:58:14;;;;;;;;;;;;;;;;;;5115186;28;20257;-81
2021/11/03 03:00:42;;;;;;;;;;;;;;;;;;5114402;28;19923;-81
2021/11/03 03:03:09;;;;;;;;;;;;;;;;;;5115347;28;19951;-80
2021/11/03 03:05:37;;;;;;;;;;;;;;;;;;5115012;28;19928;-79
2021/11/03 03:08:04;;;;;;;;;;;;;;;;;;5114893;28;19927;-80
2021/11/03 03:10:31;;;;;;;;;;;;;;;;;;5114888;28;19928;-79
2021/11/03 03:12:58;;;;;;;;;;;;;;;;;;5125543;27;19927;-79
2021/11/03 03:15:25;;;;;;;;;;;;;;;;;;5114643;27;19924;-80
2021/11/03 03:17:54;;;;;;;;;;;;;;;;;;5115033;28;19924;-79
2021/11/03 03:20:21;;;;;;;;;;;;;;;;;;5114539;28;19928;-79
2021/11/03 03:22:48;;;;;;;;;;;;;;;;;;5114321;28;20231;-79
2021/11/03 03:25:16;;;;;;;;;;;;;;;;;;5114399;28;19924;-79
2021/11/03 03:27:44;;;;;;;;;;;;;;;;;;5114366;27;20127;-79
2021/11/03 03:30:11;;;;;;;;;;;;;;;;;;5114062;28;19928;-79
2021/11/03 03:32:38;;;;;;;;;;;;;;;;;;5114745;28;19931;-79
2021/11/03 03:35:07;;;;;;;;;;;;;;;;;;5114351;28;19924;-79
2021/11/03 03:37:34;;;;;;;;;;;;;;;;;;5113923;28;19928;-79
2021/11/03 03:40:01;;;;;;;;;;;;;;;;;;5114453;28;19928;-81
2021/11/03 03:42:28;;;;;;;;;;;;;;;;;;5113605;28;20193;-80
2021/11/03 03:44:56;;;;;;;;;;;;;;;;;;5114434;28;20259;-81
2021/11/03 03:47:23;;;;;;;;;;;;;;;;;;5114295;28;19934;-81
2021/11/03 03:49:50;;;;;;;;;;;;;;;;;;5113991;28;19951;-81
2021/11/03 03:52:18;;;;;;;;;;;;;;;;;;5113911;28;19934;-81
2021/11/03 03:54:45;;;;;;;;;;;;;;;;;;5113219;28;19931;-81
2021/11/03 03:57:12;;;;;;;;;;;;;;;;;;5113690;28;20372;-81
2021/11/03 03:59:39;;;;;;;;;;;;;;;;;;5114453;28;19947;-81
2021/11/03 04:02:07;;;;;;;;;;;;;;;;;;5113920;28;19935;-81
2021/11/03 04:04:34;;;;;;;;;;;;;;;;;;5113956;28;19927;-81
2021/11/03 04:07:01;;;;;;;;;;;;;;;;;;5113216;28;19939;-81
2021/11/03 04:09:30;;;;;;;;;;;;;;;;;;5113867;28;19928;-80
2021/11/03 04:11:57;;;;;;;;;;;;;;;;;;5116648;27;19934;-81
2021/11/03 04:14:24;;;;;;;;;;;;;;;;;;5120830;27;19932;-81
2021/11/03 04:16:51;;;;;;;;;;;;;;;;;;5113826;28;19932;-81
2021/11/03 04:19:18;;;;;;;;;;;;;;;;;;5113133;28;19935;-81
2021/11/03 04:21:45;;;;;;;;;;;;;;;;;;5113684;28;19935;-79
2021/11/03 04:24:12;;;;;;;;;;;;;;;;;;5113239;28;19936;-78
2021/11/03 04:26:43;;;;;;;;;;;;;;;;;;5113215;28;20384;-79
2021/11/03 04:29:11;;;;;;;;;;;;;;;;;;5113446;28;19923;-79
2021/11/03 04:31:38;;;;;;;;;;;;;;;;;;5112999;28;20368;-79
2021/11/03 04:34:05;;;;;;;;;;;;;;;;;;5112955;28;19924;-79
2021/11/03 04:36:32;;;;;;;;;;;;;;;;;;5111818;28;19927;-79
2021/11/03 04:39:01;;;;;;;;;;;;;;;;;;5112845;28;19927;-78
2021/11/03 04:41:28;;;;;;;;;;;;;;;;;;5113057;28;20256;-78
2021/11/03 04:43:56;;;;;;;;;;;;;;;;;;5112869;28;20256;-78
2021/11/03 04:46:23;;;;;;;;;;;;;;;;;;5112732;28;20054;-79
2021/11/03 04:48:51;;;;;;;;;;;;;;;;;;5112623;28;20250;-78
2021/11/03 04:51:19;;;;;;;;;;;;;;;;;;5112906;28;19928;-78
2021/11/03 04:53:46;;;;;;;;;;;;;;;;;;5112983;28;19927;-79
2021/11/03 04:56:15;;;;;;;;;;;;;;;;;;5112066;27;19935;-78
2021/11/03 04:58:42;;;;;;;;;;;;;;;;;;5112755;28;20355;-79
2021/11/03 05:01:10;;;;;;;;;;;;;;;;;;5112524;28;19928;-79
2021/11/03 05:03:37;;;;;;;;;;;;;;;;;;5112676;28;19946;-79
2021/11/03 05:06:05;;;;;;;;;;;;;;;;;;5112377;28;19938;-79
2021/11/03 05:08:32;;;;;;;;;;;;;;;;;;5112156;28;19927;-80
2021/11/03 05:10:59;;;;;;;;;;;;;;;;;;5112717;28;19927;-80
2021/11/03 05:13:26;;;;;;;;;;;;;;;;;;5122724;27;19924;-79
2021/11/03 05:15:53;;;;;;;;;;;;;;;;;;5112486;28;19927;-79
2021/11/03 05:18:22;;;;;;;;;;;;;;;;;;5112259;28;19927;-78
2021/11/03 05:20:49;;;;;;;;;;;;;;;;;;5111968;28;20265;-79
2021/11/03 05:23:16;;;;;;;;;;;;;;;;;;5111980;27;19934;-78
2021/11/03 05:25:43;;;;;;;;;;;;;;;;;;5111866;28;19927;-79
2021/11/03 05:28:11;;;;;;;;;;;;;;;;;;5112309;28;20269;-79
2021/11/03 05:30:38;;;;;;;;;;;;;;;;;;5112135;28;19924;-79
2021/11/03 05:33:05;;;;;;;;;;;;;;;;;;5110256;28;20026;-81
2021/11/03 05:35:34;;;;;;;;;;;;;;;;;;5112541;27;20331;-80
2021/11/03 05:38:01;;;;;;;;;;;;;;;;;;5118389;27;19924;-81
2021/11/03 05:40:30;;;;;;;;;;;;;;;;;;5132023;27;19984;-80
2021/11/03 05:42:58;;;;;;;;;;;;;;;;;;5131664;27;19931;-81
2021/11/03 05:45:25;;;;;;;;;;;;;;;;;;5131834;27;19928;-81
2021/11/03 05:47:53;;;;;;;;;;;;;;;;;;5131873;27;19934;-79
2021/11/03 05:50:21;;;;;;;;;;;;;;;;;;5131457;27;19934;-78
2021/11/03 05:52:50;;;;;;;;;;;;;;;;;;5132594;27;19923;-81
2021/11/03 05:55:17;;;;;;;;;;;;;;;;;;5131568;27;19934;-79
2021/11/03 05:57:46;;;;;;;;;;;;;;;;;;5131263;27;20126;-79
2021/11/03 06:00:15;;;;;;;;;;;;;;;;;;5131860;27;20375;-79
2021/11/03 06:02:43;;;;;;;;;;;;;;;;;;5131636;28;19934;-79
2021/11/03 06:05:10;;;;;;;;;;;;;;;;;;5129527;28;19927;-78
2021/11/03 06:07:39;;;;;;;;;;;;;;;;;;5131372;27;19935;-79
2021/11/03 06:10:10;;;;;;;;;;;;;;;;;;5131505;28;19934;-81
2021/11/03 06:12:38;;;;;;;;;;;;;;;;;;5122455;27;19997;-78
2021/11/03 06:15:05;;;;;;;;;;;;;;;;;;5129335;28;19927;-81
2021/11/03 06:17:32;;;;;;;;;;;;;;;;;;5131636;28;19927;-80
2021/11/03 06:19:59;;;;;;;;;;;;;;;;;;5131823;28;19928;-79
2021/11/03 06:22:26;;;;;;;;;;;;;;;;;;5130655;28;20250;-79
2021/11/03 06:24:55;;;;;;;;;;;;;;;;;;5122755;27;19923;-80
2021/11/03 06:27:23;;;;;;;;;;;;;;;;;;5108952;28;20264;-80
2021/11/03 06:29:51;;;;;;;;;;;;;;;;;;5114379;28;20264;-78
2021/11/03 06:32:18;;;;;;;;;;;;;;;;;;5117917;27;19939;-79
2021/11/03 06:34:45;;;;;;;;;;;;;;;;;;5123441;28;20182;-79
2021/11/03 06:37:12;;;;;;;;;;;;;;;;;;5122454;28;19927;-79
2021/11/03 06:39:39;;;;;;;;;;;;;;;;;;5113674;28;19928;-79
2021/11/03 06:42:06;;;;;;;;;;;;;;;;;;5115682;28;19934;-79
2021/11/03 06:44:35;;;;;;;;;;;;;;;;;;5129125;28;20312;-78
2021/11/03 06:47:02;;;;;;;;;;;;;;;;;;5129807;28;20284;-78
2021/11/03 06:49:29;;;;;;;;;;;;;;;;;;5128397;28;19978;-79
2021/11/03 06:51:56;;;;;;;;;;;;;;;;;;5129871;28;19931;-79
2021/11/03 06:54:24;;;;;;;;;;;;;;;;;;5128758;27;19931;-79
2021/11/03 06:56:51;;;;;;;;;;;;;;;;;;5129137;28;19927;-80
2021/11/03 06:59:19;;;;;;;;;;;;;;;;;;5128378;27;19927;-82
2021/11/03 07:01:48;;;;;;;;;;;;;;;;;;5132034;27;19923;-81
2021/11/03 07:04:15;;;;;;;;;;;;;;;;;;5132470;27;19939;-82
2021/11/03 07:06:43;;;;;;;;;;;;;;;;;;5132071;27;19954;-79
2021/11/03 07:09:10;;;;;;;;;;;;;;;;;;5132214;27;19923;-79
2021/11/03 07:11:37;;;;;;;;;;;;;;;;;;5132051;27;20348;-79
2021/11/03 07:14:06;;;;;;;;;;;;;;;;;;5120966;27;20219;-79
2021/11/03 07:16:33;;;;;;;;;;;;;;;;;;5111729;28;19927;-81
2021/11/03 07:19:02;;;;;;;;;;;;;;;;;;5120965;27;20018;-82
2021/11/03 07:21:29;;;;;;;;;;;;;;;;;;5132346;27;19937;-80
2021/11/03 07:23:56;;;;;;;;;;;;;;;;;;5130857;27;20118;-81
2021/11/03 07:26:23;;;;;;;;;;;;;;;;;;5126508;27;20287;-79
2021/11/03 07:28:51;;;;;;;;;;;;;;;;;;5111361;28;19950;-79
2021/11/03 07:31:18;;;;;;;;;;;;;;;;;;5127979;27;19927;-79
2021/11/03 07:33:45;;;;;;;;;;;;;;;;;;5130809;27;19995;-78
2021/11/03 07:36:15;;;;;;;;;;;;;;;;;;5131578;27;19927;-78
2021/11/03 07:38:42;;;;;;;;;;;;;;;;;;5131649;27;19938;-79
2021/11/03 07:41:09;;;;;;;;;;;;;;;;;;5131628;27;20318;-79
2021/11/03 07:43:38;;;;;;;;;;;;;;;;;;5132038;27;19923;-78
2021/11/03 07:46:05;;;;;;;;;;;;;;;;;;5130139;27;20331;-81
2021/11/03 07:48:32;;;;;;;;;;;;;;;;;;5130827;27;19927;-81
2021/11/03 07:51:05;;;;;;;;;;;;;;;;;;5131474;27;19927;-79
2021/11/03 07:53:35;;;;;;;;;;;;;;;;;;5131069;27;19923;-79
2021/11/03 07:56:05;;;;;;;;;;;;;;;;;;5131107;27;20011;-79
2021/11/03 07:58:33;;;;;;;;;;;;;;;;;;5131070;27;19995;-80
2021/11/03 08:01:01;;;;;;;;;;;;;;;;;;5131062;27;19927;-80
2021/11/03 08:03:28;;;;;;;;;;;;;;;;;;5130810;27;19927;-79
2021/11/03 08:05:55;;;;;;;;;;;;;;;;;;5110531;27;19928;-80
2021/11/03 08:08:25;;;;;;;;;;;;;;;;;;5110441;28;20344;-80
2021/11/03 08:10:55;;;;;;;;;;;;;;;;;;5110278;28;20010;-80
2021/11/03 08:13:23;;;;;;;;;;;;;;;;;;5121014;27;19927;-81
2021/11/03 08:15:51;;;;;;;;;;;;;;;;;;5109792;28;19939;-81
2021/11/03 08:18:20;;;;;;;;;;;;;;;;;;5116609;27;19946;-82
2021/11/03 08:20:47;;;;;;;;;;;;;;;;;;5109937;28;19945;-79
2021/11/03 08:23:16;;;;;;;;;;;;;;;;;;5119387;27;19927;-81
2021/11/03 08:25:43;;;;;;;;;;;;;;;;;;5130373;27;19935;-81
2021/11/03 08:28:12;;;;;;;;;;;;;;;;;;5130048;27;20014;-81
2021/11/03 08:30:40;;;;;;;;;;;;;;;;;;5130758;27;20000;-81
2021/11/03 08:33:08;;;;;;;;;;;;;;;;;;5130673;27;19923;-79
2021/11/03 08:35:36;;;;;;;;;;;;;;;;;;5129930;27;19934;-79
2021/11/03 08:38:05;;;;;;;;;;;;;;;;;;5130108;27;20417;-79
2021/11/03 08:40:33;;;;;;;;;;;;;;;;;;5130581;27;19927;-79
2021/11/03 08:43:02;;;;;;;;;;;;;;;;;;5130043;27;19927;-80
2021/11/03 08:45:31;;;;;;;;;;;;;;;;;;5128904;27;20219;-81
2021/11/03 08:47:58;;;;;;;;;;;;;;;;;;5130055;27;19934;-79
2021/11/03 08:50:27;;;;;;;;;;;;;;;;;;5129421;27;19957;-79
2021/11/03 08:52:54;;;;;;;;;;;;;;;;;;5130224;27;20001;-79
2021/11/03 08:55:23;;;;;;;;;;;;;;;;;;5129465;27;19923;-79
2021/11/03 08:57:50;;;;;;;;;;;;;;;;;;5129252;27;20430;-80
2021/11/03 09:00:20;;;;;;;;;;;;;;;;;;5129442;27;20211;-83
2021/11/03 09:02:48;;;;;;;;;;;;;;;;;;5129619;27;19930;-82
2021/11/03 09:05:15;;;;;;;;;;;;;;;;;;5114458;27;19932;-84
2021/11/03 09:07:43;;;;;;;;;;;;;;;;;;5109107;28;19923;-81
2021/11/03 09:10:11;;;;;;;;;;;;;;;;;;5109012;28;19927;-81
2021/11/03 09:12:38;;;;;;;;;;;;;;;;;;5118417;27;19924;-84
2021/11/03 09:15:06;;;;;;;;;;;;;;;;;;5109948;27;20261;-80
2021/11/03 09:17:33;;;;;;;;;;;;;;;;;;5116750;27;19923;-82
2021/11/03 09:20:02;;;;;;;;;;;;;;;;;;5129562;27;19934;-82
2021/11/03 09:22:29;;;;;;;;;;;;;;;;;;5128416;27;19938;-83
2021/11/03 09:24:56;;;;;;;;;;;;;;;;;;5129189;27;19927;-84
2021/11/03 09:27:24;;;;;;;;;;;;;;;;;;5114683;27;19931;-81
2021/11/03 09:29:51;;;;;;;;;;;;;;;;;;5108634;28;19940;-81
2021/11/03 09:32:21;;;;;;;;;;;;;;;;;;5109266;28;19927;-81
2021/11/03 09:34:48;;;;;;;;;;;;;;;;;;5108351;28;20268;-81
2021/11/03 09:37:17;;;;;;;;;;;;;;;;;;5107446;28;20271;-81
2021/11/03 09:39:46;;;;;;;;;;;;;;;;;;5108632;28;19927;-84
2021/11/03 09:42:14;;;;;;;;;;;;;;;;;;5108445;28;20281;-82
2021/11/03 09:44:43;;;;;;;;;;;;;;;;;;5108916;28;19928;-80
2021/11/03 09:47:17;;;;;;;;;;;;;;;;;;5107941;28;20281;-80
2021/11/03 09:49:48;;;;;;;;;;;;;;;;;;5108141;28;19927;-81
2021/11/03 09:52:19;;;;;;;;;;;;;;;;;;5108266;28;19977;-81
2021/11/03 09:54:49;;;;;;;;;;;;;;;;;;5107939;28;19928;-80
2021/11/03 09:57:20;;;;;;;;;;;;;;;;;;5119687;27;19933;-84
2021/11/03 09:59:51;;;;;;;;;;;;;;;;;;5129353;27;19931;-83
2021/11/03 10:02:25;;;;;;;;;;;;;;;;;;5129274;27;19923;-83
2021/11/03 10:05:03;;;;;;;;;;;;;;;;;;5140206;27;19934;-80
2021/11/03 10:07:39;;;;;;;;;;;;;;;;;;5149373;27;20359;-82
2021/11/03 10:10:11;;;;;;;;;;;;;;;;;;5149617;27;19927;-82
2021/11/03 10:12:38;;;;;;;;;;;;;;;;;;5139814;27;19927;-81
2021/11/03 10:15:05;;;;;;;;;;;;;;;;;;5128337;28;19927;-81
2021/11/03 10:17:33;;;;;;;;;;;;;;;;;;5128829;28;19938;-82
2021/11/03 10:20:00;;;;;;;;;;;;;;;;;;5128507;28;19928;-82
2021/11/03 10:22:31;;;;;;;;;;;;;;;;;;5128518;28;19923;-83
2021/11/03 10:25:06;;;;;;;;;;;;;;;;;;5128663;27;20428;-84
2021/11/03 10:27:41;;;;;;;;;;;;;;;;;;5127864;27;20350;-82
2021/11/03 10:30:23;;;;;;;;;;;;;;;;;;5129037;28;19939;-82
2021/11/03 10:32:50;;;;;;;;;;;;;;;;;;5130512;27;19927;-80
2021/11/03 10:35:21;;;;;;;;;;;;;;;;;;5116327;27;19938;-81
2021/11/03 10:37:50;;;;;;;;;;;;;;;;;;5111660;28;20345;-80
2021/11/03 10:40:24;;;;;;;;;;;;;;;;;;5112656;28;19924;-80
2021/11/03 10:42:52;;;;;;;;;;;;;;;;;;5112028;28;19923;-81
2021/11/03 10:45:22;;;;;;;;;;;;;;;;;;5111486;28;20309;-84
2021/11/03 10:47:52;;;;;;;;;;;;;;;;;;5112588;28;19941;-83
2021/11/03 10:50:28;;;;;;;;;;;;;;;;;;5111758;28;20331;-80
2021/11/03 10:52:57;;;;;;;;;;;;;;;;;;5110383;28;19924;-81
2021/11/03 10:55:28;;;;;;;;;;;;;;;;;;5110588;28;19928;-83
2021/11/03 10:57:58;;;;;;;;;;;;;;;;;;5111500;28;20235;-80
2021/11/03 11:00:27;;;;;;;;;;;;;;;;;;5116554;27;19927;-83
2021/11/03 11:02:56;;;;;;;;;;;;;;;;;;5132320;27;19923;-83
2021/11/03 11:05:25;;;;;;;;;;;;;;;;;;5131279;27;19934;-84
2021/11/03 11:07:54;;;;;;;;;;;;;;;;;;5132048;27;19937;-81
2021/11/03 11:10:26;;;;;;;;;;;;;;;;;;5133398;27;20255;-84
2021/11/03 11:12:55;;;;;;;;;;;;;;;;;;5131874;27;19927;-83
2021/11/03 11:15:25;;;;;;;;;;;;;;;;;;5125428;27;20397;-83
2021/11/03 11:17:53;;;;;;;;;;;;;;;;;;5131826;27;19928;-84
2021/11/03 11:20:23;;;;;;;;;;;;;;;;;;5131416;27;19950;-84
2021/11/03 11:22:55;;;;;;;;;;;;;;;;;;5131994;27;20343;-84
2021/11/03 11:25:24;;;;;;;;;;;;;;;;;;5131434;27;19928;-82
2021/11/03 11:28:10;;;;;;;;;;;;;;;;;;5114518;27;19924;-82
2021/11/03 11:30:40;;;;;;;;;;;;;;;;;;5111165;28;20219;-79
2021/11/03 11:33:13;;;;;;;;;;;;;;;;;;5111122;28;19935;-81
2021/11/03 11:35:44;;;;;;;;;;;;;;;;;;5111063;28;19928;-79
2021/11/03 11:38:17;;;;;;;;;;;;;;;;;;5111021;28;19924;-80
2021/11/03 11:40:48;;;;;;;;;;;;;;;;;;5110716;28;19928;-79
2021/11/03 11:43:21;;;;;;;;;;;;;;;;;;5110063;28;19928;-79
2021/11/03 11:45:49;;;;;;;;;;;;;;;;;;5109758;28;19934;-80
2021/11/03 11:48:19;;;;;;;;;;;;;;;;;;5110476;28;19935;-80
2021/11/03 11:50:48;;;;;;;;;;;;;;;;;;5110832;28;19948;-80
2021/11/03 11:53:27;;;;;;;;;;;;;;;;;;5110188;28;19924;-80
2021/11/03 11:56:08;;;;;;;;;;;;;;;;;;5110359;28;20214;-78
2021/11/03 11:58:38;;;;;;;;;;;;;;;;;;5121379;27;19946;-79
2021/11/03 12:01:10;;;;;;;;;;;;;;;;;;5129222;27;20355;-79
2021/11/03 12:03:37;;;;;;;;;;;;;;;;;;5131179;27;19933;-80
2021/11/03 12:06:09;;;;;;;;;;;;;;;;;;5151350;27;20018;-80
2021/11/03 12:08:55;;;;;;;;;;;;;;;;;;5150443;27;19924;-80
2021/11/03 12:11:23;;;;;;;;;;;;;;;;;;5151096;27;19934;-80
2021/11/03 12:14:20;;;;;;;;;;;;;;;;;;5131694;27;19939;-80
2021/11/03 12:16:58;;;;;;;;;;;;;;;;;;5130458;27;19944;-79
2021/11/03 12:19:58;;;;;;;;;;;;;;;;;;5130184;27;19935;-80
2021/11/03 12:22:44;;;;;;;;;;;;;;;;;;5087567;28;19934;-79
2021/11/03 12:25:30;;;;;;;;;;;;;;;;;;5086772;28;19927;-80
2021/11/03 12:28:19;;;;;;;;;;;;;;;;;;5086708;28;20352;-80
2021/11/03 12:30:47;;;;;;;;;;;;;;;;;;5087104;28;20019;-79
2021/11/03 12:33:16;;;;;;;;;;;;;;;;;;5086944;28;19942;-79
2021/11/03 12:35:59;;;;;;;;;;;;;;;;;;5086347;28;19928;-80
2021/11/03 12:38:42;;;;;;;;;;;;;;;;;;5086591;28;20278;-79
2021/11/03 12:41:20;;;;;;;;;;;;;;;;;;5087291;28;19955;-79
2021/11/03 12:43:49;;;;;;;;;;;;;;;;;;5088396;28;19924;-80
2021/11/03 12:46:17;;;;;;;;;;;;;;;;;;5087407;28;19959;-80
2021/11/03 12:48:47;;;;;;;;;;;;;;;;;;5087404;28;20704;-80
2021/11/03 12:51:15;;;;;;;;;;;;;;;;;;5088682;28;20338;-80
2021/11/03 12:53:47;;;;;;;;;;;;;;;;;;5115575;27;19934;-79
2021/11/03 12:56:15;;;;;;;;;;;;;;;;;;5130503;27;20035;-79
2021/11/03 12:58:44;;;;;;;;;;;;;;;;;;5131115;27;19934;-79
2021/11/03 13:01:19;;;;;;;;;;;;;;;;;;5131496;27;19927;-79
2021/11/03 13:03:49;;;;;;;;;;;;;;;;;;5129310;27;19963;-79
2021/11/03 13:06:16;;;;;;;;;;;;;;;;;;5110527;28;19924;-80
2021/11/03 13:08:44;;;;;;;;;;;;;;;;;;5110268;28;19946;-82
2021/11/03 13:11:17;;;;;;;;;;;;;;;;;;5110757;28;19928;-80
2021/11/03 13:13:46;;;;;;;;;;;;;;;;;;5129390;27;19996;-79
2021/11/03 13:16:16;;;;;;;;;;;;;;;;;;5131529;27;20034;-79
2021/11/03 13:18:44;;;;;;;;;;;;;;;;;;5131147;27;20308;-81
2021/11/03 13:21:23;;;;;;;;;;;;;;;;;;5131254;27;19985;-80
2021/11/03 13:23:51;;;;;;;;;;;;;;;;;;5129756;27;19938;-81
2021/11/03 13:26:22;;;;;;;;;;;;;;;;;;5127293;27;20018;-79
2021/11/03 13:28:51;;;;;;;;;;;;;;;;;;5110588;28;19932;-79
2021/11/03 13:31:24;;;;;;;;;;;;;;;;;;5110797;27;20030;-79
2021/11/03 13:33:59;;;;;;;;;;;;;;;;;;5110579;28;19942;-81
2021/11/03 13:36:29;;;;;;;;;;;;;;;;;;5109718;28;20011;-79
2021/11/03 13:38:58;;;;;;;;;;;;;;;;;;5110459;27;20027;-80
2021/11/03 13:41:27;;;;;;;;;;;;;;;;;;5110688;28;19974;-79
2021/11/03 13:44:18;;;;;;;;;;;;;;;;;;5110634;28;20378;-79
2021/11/03 13:46:48;;;;;;;;;;;;;;;;;;5111299;28;19928;-79
2021/11/03 13:49:17;;;;;;;;;;;;;;;;;;5110185;28;20345;-80
2021/11/03 13:51:51;;;;;;;;;;;;;;;;;;5110503;28;19931;-80
2021/11/03 13:54:21;;;;;;;;;;;;;;;;;;5110485;28;19924;-78
2021/11/03 13:56:49;;;;;;;;;;;;;;;;;;5109449;28;20188;-79
2021/11/03 13:59:18;;;;;;;;;;;;;;;;;;5109731;28;19924;-78
2021/11/03 14:01:52;;;;;;;;;;;;;;;;;;5110111;28;19927;-78
2021/11/03 14:04:20;;;;;;;;;;;;;;;;;;5110027;27;19923;-80
2021/11/03 14:07:21;;;;;;;;;;;;;;;;;;5109263;28;19924;-81
2021/11/03 14:09:50;;;;;;;;;;;;;;;;;;5086826;28;19997;-80
2021/11/03 14:12:18;;;;;;;;;;;;;;;;;;5087172;28;19928;-78
2021/11/03 14:14:46;;;;;;;;;;;;;;;;;;5071361;28;20026;-81
2021/11/03 14:17:17;;;;;;;;;;;;;;;;;;5067184;28;19936;-82
2021/11/03 14:19:46;;;;;;;;;;;;;;;;;;5067645;28;20067;-80
2021/11/03 14:22:14;;;;;;;;;;;;;;;;;;5067372;28;20362;-79
2021/11/03 14:24:41;;;;;;;;;;;;;;;;;;5078985;28;19924;-78
2021/11/03 14:27:11;;;;;;;;;;;;;;;;;;5083413;28;19928;-80
2021/11/03 14:29:38;;;;;;;;;;;;;;;;;;5070681;28;19979;-80
2021/11/03 14:32:10;;;;;;;;;;;;;;;;;;5086625;28;20370;-78
2021/11/03 14:34:38;;;;;;;;;;;;;;;;;;5087852;28;20254;-80
2021/11/03 14:37:06;;;;;;;;;;;;;;;;;;5086323;28;19967;-80
2021/11/03 14:39:36;;;;;;;;;;;;;;;;;;5087168;28;20048;-78
2021/11/03 14:42:04;;;;;;;;;;;;;;;;;;5110256;28;20032;-79
2021/11/03 14:44:33;;;;;;;;;;;;;;;;;;5132834;27;19926;-79
2021/11/03 14:47:01;;;;;;;;;;;;;;;;;;5150656;27;20135;-77
2021/11/03 14:49:32;;;;;;;;;;;;;;;;;;5150688;27;19927;-78
2021/11/03 14:52:00;;;;;;;;;;;;;;;;;;5151319;27;19923;-79
2021/11/03 14:54:27;;;;;;;;;;;;;;;;;;5150819;27;19923;-79
2021/11/03 14:56:55;;;;;;;;;;;;;;;;;;5150832;27;20340;-78
2021/11/03 14:59:22;;;;;;;;;;;;;;;;;;5150170;27;19927;-79
2021/11/03 15:01:54;;;;;;;;;;;;;;;;;;5150436;27;20009;-80
2021/11/03 15:04:24;;;;;;;;;;;;;;;;;;5150281;27;19937;-78
2021/11/03 15:06:53;;;;;;;;;;;;;;;;;;5150012;27;19985;-79
2021/11/03 15:09:25;;;;;;;;;;;;;;;;;;5150046;27;20012;-80
2021/11/03 15:11:53;;;;;;;;;;;;;;;;;;5147570;27;19927;-80
2021/11/03 15:14:20;;;;;;;;;;;;;;;;;;5129796;28;19927;-79
2021/11/03 15:16:48;;;;;;;;;;;;;;;;;;5129713;28;19931;-79
2021/11/03 15:19:20;;;;;;;;;;;;;;;;;;5129832;27;19935;-79
2021/11/03 15:21:47;;;;;;;;;;;;;;;;;;5133656;27;19927;-79
2021/11/03 15:24:15;;;;;;;;;;;;;;;;;;5133170;27;19923;-79
2021/11/03 15:26:42;;;;;;;;;;;;;;;;;;5126315;27;19927;-80
2021/11/03 15:29:10;;;;;;;;;;;;;;;;;;5112579;28;19935;-80
2021/11/03 15:31:39;;;;;;;;;;;;;;;;;;5112851;28;20292;-80
2021/11/03 15:34:12;;;;;;;;;;;;;;;;;;5112733;28;20269;-80
2021/11/03 15:36:41;;;;;;;;;;;;;;;;;;5110984;27;19935;-80
2021/11/03 15:39:14;;;;;;;;;;;;;;;;;;5132014;27;19927;-80
2021/11/03 15:41:42;;;;;;;;;;;;;;;;;;5132423;27;19938;-80
2021/11/03 15:44:09;;;;;;;;;;;;;;;;;;5134577;27;19923;-80
2021/11/03 15:46:38;;;;;;;;;;;;;;;;;;5134036;27;20252;-80
2021/11/03 15:49:14;;;;;;;;;;;;;;;;;;5133292;27;19927;-80
2021/11/03 15:51:42;;;;;;;;;;;;;;;;;;5133703;27;19995;-80
2021/11/03 15:54:10;;;;;;;;;;;;;;;;;;5134120;27;20365;-79
2021/11/03 15:56:38;;;;;;;;;;;;;;;;;;5133815;27;19927;-80
2021/11/03 15:59:06;;;;;;;;;;;;;;;;;;5133617;27;20397;-80
2021/11/03 16:01:33;;;;;;;;;;;;;;;;;;5133792;27;19923;-80
2021/11/03 16:04:01;;;;;;;;;;;;;;;;;;5133532;27;19934;-79
2021/11/03 16:06:30;;;;;;;;;;;;;;;;;;5133276;27;20018;-79
2021/11/03 16:08:59;;;;;;;;;;;;;;;;;;5133746;27;20366;-81
2021/11/03 16:11:26;;;;;;;;;;;;;;;;;;5133016;27;19935;-80
2021/11/03 16:13:53;;;;;;;;;;;;;;;;;;5125136;27;19931;-78
2021/11/03 16:16:21;;;;;;;;;;;;;;;;;;5113521;28;19934;-79
2021/11/03 16:18:48;;;;;;;;;;;;;;;;;;5112107;27;20474;-78
2021/11/03 16:21:18;;;;;;;;;;;;;;;;;;5127790;27;20324;-79
2021/11/03 16:23:45;;;;;;;;;;;;;;;;;;5133783;27;19924;-78
2021/11/03 16:26:14;;;;;;;;;;;;;;;;;;5133463;27;19927;-78
2021/11/03 16:28:41;;;;;;;;;;;;;;;;;;5133956;27;19939;-78
2021/11/03 16:31:08;;;;;;;;;;;;;;;;;;5133982;27;19924;-79
2021/11/03 16:33:35;;;;;;;;;;;;;;;;;;5133895;27;20352;-78
2021/11/03 16:36:04;;;;;;;;;;;;;;;;;;5133685;27;19927;-79
2021/11/03 16:38:31;;;;;;;;;;;;;;;;;;5133322;27;19931;-80
2021/11/03 16:41:17;;;;;;;;;;;;;;;;;;5133693;27;20390;-80
2021/11/03 16:43:46;;;;;;;;;;;;;;;;;;5133367;27;19950;-79
2021/11/03 16:46:13;;;;;;;;;;;;;;;;;;5133376;27;19927;-79
2021/11/03 16:48:40;;;;;;;;;;;;;;;;;;5133317;27;20355;-79
2021/11/03 16:51:09;;;;;;;;;;;;;;;;;;5133565;27;19923;-79
2021/11/03 16:53:37;;;;;;;;;;;;;;;;;;5133691;27;19931;-79
2021/11/03 16:56:06;;;;;;;;;;;;;;;;;;5133337;27;20241;-79
2021/11/03 16:58:35;;;;;;;;;;;;;;;;;;5133170;27;20370;-79